Wilson Lahn — 8PUO — position and weather

sailwx.info

Track history (hours):
 
Tides and Currents Weather Stations Pressure Air Temp Water Temp Dewpoint Dewpoint Depression Visibility Wind Speed Wind Dir Waves Ship Positions

Wilson Lahn

Last reported at 2018-Jan-21 09:05 UTC. Time now 2018-Jan-22 02:46 UTC.
Position N 58°29' E 004°55'.

Length 83 m; draft 3.2 m.

Type: Cargo ship. MMSI: 314259000.

Date/timePositionNaut miles runAvg speedWind from/ knotsBaromVisibWave heightAir tempDewpointWater temp
2018-Jan-21 09:05N 58°29' E 004°55'1 8.4
2018-Jan-21 09:00N 58°30' E 004°55'4 8.4
2018-Jan-21 08:30N 58°34' E 004°54'4 8.3
2018-Jan-21 08:00N 58°38' E 004°54'5 9.0
2018-Jan-21 07:30N 58°42' E 004°53'5 9.4
2018-Jan-21 06:59N 58°47' E 004°52'4 9.3
2018-Jan-21 06:30N 58°52' E 004°51'5 9.4
2018-Jan-21 05:58N 58°57' E 004°51'7 9.2
2018-Jan-21 05:12N 59°04' E 004°50'3 9.7
2018-Jan-21 04:55N 59°06' E 004°49'4 9.8
2018-Jan-21 04:29N 59°11' E 004°49'5 9.7
2018-Jan-21 04:00N 59°15' E 004°48'5 9.5
2018-Jan-21 03:30N 59°20' E 004°47'5 9.3
2018-Jan-21 03:00N 59°25' E 004°46'5 9.5
2018-Jan-21 02:30N 59°29' E 004°45'5 9.7
2018-Jan-21 02:00N 59°34' E 004°44'510.0
2018-Jan-21 01:30N 59°39' E 004°43'5 9.8
2018-Jan-21 00:59N 59°44' E 004°42'4 9.2
2018-Jan-21 00:30N 59°49' E 004°41'5 9.0
2018-Jan-21 00:00N 59°53' E 004°40'5 9.0
2018-Jan-20 23:30N 59°58' E 004°39'5 9.1
2018-Jan-20 23:00N 60°02' E 004°38'4 9.0
2018-Jan-20 22:31N 60°07' E 004°37'5 9.4
2018-Jan-20 21:59N 60°11' E 004°36'5 9.2
2018-Jan-20 21:29N 60°16' E 004°34'4 7.9
2018-Jan-20 21:00N 60°20' E 004°34'4 7.6
2018-Jan-20 20:30N 60°24' E 004°33'4 7.6
2018-Jan-20 20:00N 60°27' E 004°32'5 9.1
2018-Jan-20 19:31N 60°32' E 004°31'4 9.0
2018-Jan-20 19:01N 60°36' E 004°30'4 7.9
2018-Jan-20 18:30N 60°40' E 004°29'4 7.4
2018-Jan-20 18:00N 60°44' E 004°28'4 7.5
2018-Jan-20 17:30N 60°48' E 004°27'4 8.7
2018-Jan-20 17:00N 60°52' E 004°26'4 7.8
2018-Jan-20 16:30N 60°56' E 004°25'4 7.9
2018-Jan-20 16:00N 60°60' E 004°25'4 7.8
2018-Jan-20 15:30N 61°04' E 004°25'4 7.7
2018-Jan-20 15:00N 61°08' E 004°24'4 7.6
2018-Jan-20 14:30N 61°11' E 004°24'4 8.9
2018-Jan-20 14:00N 61°16' E 004°24'5 9.4
2018-Jan-20 13:30N 61°20' E 004°24'5 9.8
2018-Jan-20 12:59N 61°26' E 004°24'510.2
2018-Jan-20 12:30N 61°31' E 004°24'510.0
2018-Jan-20 12:00N 61°35' E 004°24'5 9.1
2018-Jan-20 11:30N 61°40' E 004°26'5 8.9
2018-Jan-20 11:00N 61°44' E 004°30'4 8.8
2018-Jan-20 10:30N 61°48' E 004°33'5 8.7
2018-Jan-20 09:59N 61°52' E 004°37'4 8.5
2018-Jan-20 09:30N 61°56' E 004°40'5 8.7
2018-Jan-20 08:59N 62°00' E 004°44'4 8.7
2018-Jan-20 08:30N 62°04' E 004°48'4 8.8
2018-Jan-20 08:00N 62°08' E 004°52'4 8.6
2018-Jan-20 07:29N 62°12' E 004°56'4 8.9
2018-Jan-20 07:00N 62°16' E 005°01'5 9.1
2018-Jan-20 06:30N 62°19' E 005°07'5 9.4
2018-Jan-20 05:59N 62°23' E 005°15'5 9.8
2018-Jan-20 05:29N 62°26' E 005°22'5 9.2
2018-Jan-20 04:59N 62°30' E 005°28'5 9.0
2018-Jan-20 04:29N 62°30' E 005°38'5 9.7
2018-Jan-20 03:59N 62°29' E 005°48'510.6
2018-Jan-20 03:30N 62°27' E 005°58'4 8.5
2018-Jan-20 03:00N 62°23' E 006°02'1 2.6
2018-Jan-20 02:30N 62°22' E 006°02'0 0.0
2018-Jan-20 02:00N 62°22' E 006°02'0 0.0
2018-Jan-20 01:30N 62°22' E 006°02'0 0.0
2018-Jan-20 01:00N 62°22' E 006°02'0 0.0
2018-Jan-20 00:30N 62°22' E 006°02'0 0.0
2018-Jan-20 00:00N 62°22' E 006°02'0 0.0
2018-Jan-19 23:30N 62°22' E 006°02'0 0.0
2018-Jan-19 23:00N 62°22' E 006°02'0 0.0
2018-Jan-19 22:30N 62°22' E 006°02'0 0.0
2018-Jan-19 22:00N 62°22' E 006°02'0 0.0
2018-Jan-19 21:30N 62°22' E 006°02'0 0.0
2018-Jan-19 21:00N 62°22' E 006°02'0 0.0
2018-Jan-19 20:27N 62°22' E 006°02'0 0.0
2018-Jan-19 20:00N 62°22' E 006°02'0 0.0
2018-Jan-19 19:27N 62°22' E 006°02'0 0.0
2018-Jan-19 19:00N 62°22' E 006°02'0 0.0
2018-Jan-19 18:30N 62°22' E 006°02'0 0.0
2018-Jan-19 18:00N 62°22' E 006°02'0 0.0
2018-Jan-19 17:30N 62°22' E 006°02'0 0.0
2018-Jan-19 16:57N 62°22' E 006°02'0 0.0
2018-Jan-19 16:30N 62°22' E 006°02'2 4.1
2018-Jan-19 16:00N 62°24' E 006°02'4 7.7
2018-Jan-19 15:30N 62°27' E 005°57'510.0
2018-Jan-19 15:00N 62°30' E 005°47'510.0
2018-Jan-19 14:29N 62°34' E 005°43'5 9.6
2018-Jan-19 14:00N 62°39' E 005°45'510.1
2018-Jan-19 13:30N 62°42' E 005°53'510.1
2018-Jan-19 13:00N 62°46' E 005°60'510.0
2018-Jan-19 12:30N 62°50' E 006°07'5 9.6
2018-Jan-19 12:00N 62°53' E 006°15'5 9.4
2018-Jan-19 11:30N 62°56' E 006°24'5 9.7
2018-Jan-19 11:00N 62°59' E 006°33'5 9.6
2018-Jan-19 10:30N 63°01' E 006°41'5 9.5
2018-Jan-19 10:00N 63°04' E 006°50'5 9.1
2018-Jan-19 09:30N 63°07' E 006°58'5 9.2
2018-Jan-19 09:00N 63°09' E 007°06'4 9.0
2018-Jan-19 08:30N 63°12' E 007°14'4 9.0
2018-Jan-19 08:01N 63°14' E 007°23'5 9.0
2018-Jan-19 07:30N 63°15' E 007°33'510.0
2018-Jan-19 07:00N 63°14' E 007°44'510.6
2018-Jan-19 06:30N 63°14' E 007°56'510.8
2018-Jan-19 06:00N 63°16' E 008°06'510.9
2018-Jan-19 05:30N 63°19' E 008°16'611.2
2018-Jan-19 04:59N 63°23' E 008°26'611.6
2018-Jan-19 04:30N 63°25' E 008°38'611.5
2018-Jan-19 03:59N 63°27' E 008°50'611.4
2018-Jan-19 03:29N 63°29' E 009°02'511.0
2018-Jan-19 03:00N 63°32' E 009°12'5 9.9
2018-Jan-19 02:30N 63°37' E 009°16'510.0
2018-Jan-19 02:00N 63°42' E 009°17'511.0
2018-Jan-19 01:30N 63°45' E 009°27'510.3
2018-Jan-19 01:00N 63°48' E 009°36'1 2.6
2018-Jan-19 00:30N 63°49' E 009°38'0 0.0
2018-Jan-19 00:00N 63°49' E 009°38'0 0.0
2018-Jan-18 23:30N 63°49' E 009°38'0 0.0
2018-Jan-18 23:00N 63°49' E 009°38'0 0.0
2018-Jan-18 22:30N 63°49' E 009°38'0 0.0
2018-Jan-18 22:00N 63°49' E 009°38'0 0.0
2018-Jan-18 21:30N 63°49' E 009°38'0 0.0
2018-Jan-18 21:00N 63°49' E 009°38'0 0.0
2018-Jan-18 20:30N 63°49' E 009°38'0 0.0
2018-Jan-18 20:00N 63°49' E 009°38'0 0.0
2018-Jan-18 19:30N 63°49' E 009°38'0 0.0
2018-Jan-18 19:00N 63°49' E 009°38'0 0.0
2018-Jan-18 18:30N 63°49' E 009°38'0 0.0
2018-Jan-18 18:00N 63°49' E 009°38'0 0.0
2018-Jan-18 17:30N 63°49' E 009°38'0 0.0
2018-Jan-18 17:00N 63°49' E 009°38'0 0.0
2018-Jan-18 16:30N 63°49' E 009°38'0 0.0
2018-Jan-18 16:00N 63°49' E 009°38'0 0.0
2018-Jan-18 15:30N 63°49' E 009°38'0 0.0
2018-Jan-18 15:00N 63°49' E 009°38'0 0.0
2018-Jan-18 14:30N 63°49' E 009°38'0 0.0
2018-Jan-18 14:00N 63°49' E 009°38'0 0.0
2018-Jan-18 13:30N 63°49' E 009°38'0 0.0
2018-Jan-18 13:00N 63°49' E 009°38'0 0.0
2018-Jan-18 12:30N 63°49' E 009°38'0 0.0
2018-Jan-18 12:00N 63°49' E 009°38'0 0.0
2018-Jan-18 11:30N 63°49' E 009°38'0 0.0
2018-Jan-18 11:00N 63°49' E 009°38'0 0.0
2018-Jan-18 10:30N 63°49' E 009°38'0 0.0
2018-Jan-18 10:00N 63°49' E 009°38'0 0.0
2018-Jan-18 09:30N 63°49' E 009°38'0 0.0
2018-Jan-18 09:00N 63°49' E 009°38'0 0.0
2018-Jan-18 08:30N 63°49' E 009°38'0 0.0
2018-Jan-18 08:00N 63°49' E 009°38'0 0.0
2018-Jan-18 07:30N 63°49' E 009°38'0 0.0
2018-Jan-18 07:00N 63°49' E 009°38'0 0.0
2018-Jan-18 06:30N 63°49' E 009°38'0 0.0
2018-Jan-18 06:00N 63°49' E 009°38'0 0.0
2018-Jan-18 05:30N 63°49' E 009°38'0 0.0
2018-Jan-18 05:00N 63°49' E 009°38'0 0.0
2018-Jan-18 04:30N 63°49' E 009°38'0 0.0
2018-Jan-18 04:00N 63°49' E 009°38'0 0.0
2018-Jan-18 03:30N 63°49' E 009°38'0 0.0
2018-Jan-18 03:00N 63°49' E 009°38'0 0.0
2018-Jan-18 02:30N 63°49' E 009°38'0 0.0
2018-Jan-18 02:00N 63°49' E 009°38'0 0.0
2018-Jan-18 01:30N 63°49' E 009°38'0 0.0
2018-Jan-18 01:00N 63°49' E 009°38'0 0.2
2018-Jan-18 00:00N 63°49' E 009°39'0 0.0
2018-Jan-17 23:57N 63°49' E 009°39'  
Track history (hours):
 
Tides and Currents Weather Stations Pressure Air Temp Water Temp Dewpoint Dewpoint Depression Visibility Wind Speed Wind Dir Waves Ship Positions

Wilson Lahn

Last reported at 2018-Jan-21 09:05 UTC. Time now 2018-Jan-22 02:46 UTC.
Position N 58°29' E 004°55'.

Length 83 m; draft 3.2 m.

Type: Cargo ship. MMSI: 314259000.

Date/timePositionNaut miles runAvg speedWind from/ knotsBaromVisibWave heightAir tempDewpointWater temp
2018-Jan-21 09:05N 58°29' E 004°55'1 8.4
2018-Jan-21 09:00N 58°30' E 004°55'4 8.4
2018-Jan-21 08:30N 58°34' E 004°54'4 8.3
2018-Jan-21 08:00N 58°38' E 004°54'5 9.0
2018-Jan-21 07:30N 58°42' E 004°53'5 9.4
2018-Jan-21 06:59N 58°47' E 004°52'4 9.3
2018-Jan-21 06:30N 58°52' E 004°51'5 9.4
2018-Jan-21 05:58N 58°57' E 004°51'7 9.2
2018-Jan-21 05:12N 59°04' E 004°50'3 9.7
2018-Jan-21 04:55N 59°06' E 004°49'4 9.8
2018-Jan-21 04:29N 59°11' E 004°49'5 9.7
2018-Jan-21 04:00N 59°15' E 004°48'5 9.5
2018-Jan-21 03:30N 59°20' E 004°47'5 9.3
2018-Jan-21 03:00N 59°25' E 004°46'5 9.5
2018-Jan-21 02:30N 59°29' E 004°45'5 9.7
2018-Jan-21 02:00N 59°34' E 004°44'510.0
2018-Jan-21 01:30N 59°39' E 004°43'5 9.8
2018-Jan-21 00:59N 59°44' E 004°42'4 9.2
2018-Jan-21 00:30N 59°49' E 004°41'5 9.0
2018-Jan-21 00:00N 59°53' E 004°40'5 9.0
2018-Jan-20 23:30N 59°58' E 004°39'5 9.1
2018-Jan-20 23:00N 60°02' E 004°38'4 9.0
2018-Jan-20 22:31N 60°07' E 004°37'5 9.4
2018-Jan-20 21:59N 60°11' E 004°36'5 9.2
2018-Jan-20 21:29N 60°16' E 004°34'4 7.9
2018-Jan-20 21:00N 60°20' E 004°34'4 7.6
2018-Jan-20 20:30N 60°24' E 004°33'4 7.6
2018-Jan-20 20:00N 60°27' E 004°32'5 9.1
2018-Jan-20 19:31N 60°32' E 004°31'4 9.0
2018-Jan-20 19:01N 60°36' E 004°30'4 7.9
2018-Jan-20 18:30N 60°40' E 004°29'4 7.4
2018-Jan-20 18:00N 60°44' E 004°28'4 7.5
2018-Jan-20 17:30N 60°48' E 004°27'4 8.7
2018-Jan-20 17:00N 60°52' E 004°26'4 7.8
2018-Jan-20 16:30N 60°56' E 004°25'4 7.9
2018-Jan-20 16:00N 60°60' E 004°25'4 7.8
2018-Jan-20 15:30N 61°04' E 004°25'4 7.7
2018-Jan-20 15:00N 61°08' E 004°24'4 7.6
2018-Jan-20 14:30N 61°11' E 004°24'4 8.9
2018-Jan-20 14:00N 61°16' E 004°24'5 9.4
2018-Jan-20 13:30N 61°20' E 004°24'5 9.8
2018-Jan-20 12:59N 61°26' E 004°24'510.2
2018-Jan-20 12:30N 61°31' E 004°24'510.0
2018-Jan-20 12:00N 61°35' E 004°24'5 9.1
2018-Jan-20 11:30N 61°40' E 004°26'5 8.9
2018-Jan-20 11:00N 61°44' E 004°30'4 8.8
2018-Jan-20 10:30N 61°48' E 004°33'5 8.7
2018-Jan-20 09:59N 61°52' E 004°37'4 8.5
2018-Jan-20 09:30N 61°56' E 004°40'5 8.7
2018-Jan-20 08:59N 62°00' E 004°44'4 8.7
2018-Jan-20 08:30N 62°04' E 004°48'4 8.8
2018-Jan-20 08:00N 62°08' E 004°52'4 8.6
2018-Jan-20 07:29N 62°12' E 004°56'4 8.9
2018-Jan-20 07:00N 62°16' E 005°01'5 9.1
2018-Jan-20 06:30N 62°19' E 005°07'5 9.4
2018-Jan-20 05:59N 62°23' E 005°15'5 9.8
2018-Jan-20 05:29N 62°26' E 005°22'5 9.2
2018-Jan-20 04:59N 62°30' E 005°28'5 9.0
2018-Jan-20 04:29N 62°30' E 005°38'5 9.7
2018-Jan-20 03:59N 62°29' E 005°48'510.6
2018-Jan-20 03:30N 62°27' E 005°58'4 8.5
2018-Jan-20 03:00N 62°23' E 006°02'1 2.6
2018-Jan-20 02:30N 62°22' E 006°02'0 0.0
2018-Jan-20 02:00N 62°22' E 006°02'0 0.0
2018-Jan-20 01:30N 62°22' E 006°02'0 0.0
2018-Jan-20 01:00N 62°22' E 006°02'0 0.0
2018-Jan-20 00:30N 62°22' E 006°02'0 0.0
2018-Jan-20 00:00N 62°22' E 006°02'0 0.0
2018-Jan-19 23:30N 62°22' E 006°02'0 0.0
2018-Jan-19 23:00N 62°22' E 006°02'0 0.0
2018-Jan-19 22:30N 62°22' E 006°02'0 0.0
2018-Jan-19 22:00N 62°22' E 006°02'0 0.0
2018-Jan-19 21:30N 62°22' E 006°02'0 0.0
2018-Jan-19 21:00N 62°22' E 006°02'0 0.0
2018-Jan-19 20:27N 62°22' E 006°02'0 0.0
2018-Jan-19 20:00N 62°22' E 006°02'0 0.0
2018-Jan-19 19:27N 62°22' E 006°02'0 0.0
2018-Jan-19 19:00N 62°22' E 006°02'0 0.0
2018-Jan-19 18:30N 62°22' E 006°02'0 0.0
2018-Jan-19 18:00N 62°22' E 006°02'0 0.0
2018-Jan-19 17:30N 62°22' E 006°02'0 0.0
2018-Jan-19 16:57N 62°22' E 006°02'0 0.0
2018-Jan-19 16:30N 62°22' E 006°02'2 4.1
2018-Jan-19 16:00N 62°24' E 006°02'4 7.7
2018-Jan-19 15:30N 62°27' E 005°57'510.0
2018-Jan-19 15:00N 62°30' E 005°47'510.0
2018-Jan-19 14:29N 62°34' E 005°43'5 9.6
2018-Jan-19 14:00N 62°39' E 005°45'510.1
2018-Jan-19 13:30N 62°42' E 005°53'510.1
2018-Jan-19 13:00N 62°46' E 005°60'510.0
2018-Jan-19 12:30N 62°50' E 006°07'5 9.6
2018-Jan-19 12:00N 62°53' E 006°15'5 9.4
2018-Jan-19 11:30N 62°56' E 006°24'5 9.7
2018-Jan-19 11:00N 62°59' E 006°33'5 9.6
2018-Jan-19 10:30N 63°01' E 006°41'5 9.5
2018-Jan-19 10:00N 63°04' E 006°50'5 9.1
2018-Jan-19 09:30N 63°07' E 006°58'5 9.2
2018-Jan-19 09:00N 63°09' E 007°06'4 9.0
2018-Jan-19 08:30N 63°12' E 007°14'4 9.0
2018-Jan-19 08:01N 63°14' E 007°23'5 9.0
2018-Jan-19 07:30N 63°15' E 007°33'510.0
2018-Jan-19 07:00N 63°14' E 007°44'510.6
2018-Jan-19 06:30N 63°14' E 007°56'510.8
2018-Jan-19 06:00N 63°16' E 008°06'510.9
2018-Jan-19 05:30N 63°19' E 008°16'611.2
2018-Jan-19 04:59N 63°23' E 008°26'611.6
2018-Jan-19 04:30N 63°25' E 008°38'611.5
2018-Jan-19 03:59N 63°27' E 008°50'611.4
2018-Jan-19 03:29N 63°29' E 009°02'511.0
2018-Jan-19 03:00N 63°32' E 009°12'5 9.9
2018-Jan-19 02:30N 63°37' E 009°16'510.0
2018-Jan-19 02:00N 63°42' E 009°17'511.0
2018-Jan-19 01:30N 63°45' E 009°27'510.3
2018-Jan-19 01:00N 63°48' E 009°36'1 2.6
2018-Jan-19 00:30N 63°49' E 009°38'0 0.0
2018-Jan-19 00:00N 63°49' E 009°38'0 0.0
2018-Jan-18 23:30N 63°49' E 009°38'0 0.0
2018-Jan-18 23:00N 63°49' E 009°38'0 0.0
2018-Jan-18 22:30N 63°49' E 009°38'0 0.0
2018-Jan-18 22:00N 63°49' E 009°38'0 0.0
2018-Jan-18 21:30N 63°49' E 009°38'0 0.0
2018-Jan-18 21:00N 63°49' E 009°38'0 0.0
2018-Jan-18 20:30N 63°49' E 009°38'0 0.0
2018-Jan-18 20:00N 63°49' E 009°38'0 0.0
2018-Jan-18 19:30N 63°49' E 009°38'0 0.0
2018-Jan-18 19:00N 63°49' E 009°38'0 0.0
2018-Jan-18 18:30N 63°49' E 009°38'0 0.0
2018-Jan-18 18:00N 63°49' E 009°38'0 0.0
2018-Jan-18 17:30N 63°49' E 009°38'0 0.0
2018-Jan-18 17:00N 63°49' E 009°38'0 0.0
2018-Jan-18 16:30N 63°49' E 009°38'0 0.0
2018-Jan-18 16:00N 63°49' E 009°38'0 0.0
2018-Jan-18 15:30N 63°49' E 009°38'0 0.0
2018-Jan-18 15:00N 63°49' E 009°38'0 0.0
2018-Jan-18 14:30N 63°49' E 009°38'0 0.0
2018-Jan-18 14:00N 63°49' E 009°38'0 0.0
2018-Jan-18 13:30N 63°49' E 009°38'0 0.0
2018-Jan-18 13:00N 63°49' E 009°38'0 0.0
2018-Jan-18 12:30N 63°49' E 009°38'0 0.0
2018-Jan-18 12:00N 63°49' E 009°38'0 0.0
2018-Jan-18 11:30N 63°49' E 009°38'0 0.0
2018-Jan-18 11:00N 63°49' E 009°38'0 0.0
2018-Jan-18 10:30N 63°49' E 009°38'0 0.0
2018-Jan-18 10:00N 63°49' E 009°38'0 0.0
2018-Jan-18 09:30N 63°49' E 009°38'0 0.0
2018-Jan-18 09:00N 63°49' E 009°38'0 0.0
2018-Jan-18 08:30N 63°49' E 009°38'0 0.0
2018-Jan-18 08:00N 63°49' E 009°38'0 0.0
2018-Jan-18 07:30N 63°49' E 009°38'0 0.0
2018-Jan-18 07:00N 63°49' E 009°38'0 0.0
2018-Jan-18 06:30N 63°49' E 009°38'0 0.0
2018-Jan-18 06:00N 63°49' E 009°38'0 0.0
2018-Jan-18 05:30N 63°49' E 009°38'0 0.0
2018-Jan-18 05:00N 63°49' E 009°38'0 0.0
2018-Jan-18 04:30N 63°49' E 009°38'0 0.0
2018-Jan-18 04:00N 63°49' E 009°38'0 0.0
2018-Jan-18 03:30N 63°49' E 009°38'0 0.0
2018-Jan-18 03:00N 63°49' E 009°38'0 0.0
2018-Jan-18 02:30N 63°49' E 009°38'0 0.0
2018-Jan-18 02:00N 63°49' E 009°38'0 0.0
2018-Jan-18 01:30N 63°49' E 009°38'0 0.0
2018-Jan-18 01:00N 63°49' E 009°38'0 0.2
2018-Jan-18 00:00N 63°49' E 009°39'0 0.0
2018-Jan-17 23:57N 63°49' E 009°39'  

Dump ship's entire track history